sensor_id;sensor_type;location;lat;lon;timestamp;temperature;humidity
37788;DHT22;23627;53.302;-6.362;2024-03-25T00:01:33;9.30;99.90
37788;DHT22;23627;53.302;-6.362;2024-03-25T00:03:59;9.20;99.90
37788;DHT22;23627;53.302;-6.362;2024-03-25T00:06:25;9.20;99.90
37788;DHT22;23627;53.302;-6.362;2024-03-25T00:08:51;9.30;99.90
37788;DHT22;23627;53.302;-6.362;2024-03-25T00:11:17;9.30;99.90
37788;DHT22;23627;53.302;-6.362;2024-03-25T00:13:43;9.30;99.90
37788;DHT22;23627;53.302;-6.362;2024-03-25T00:16:09;9.20;99.90
37788;DHT22;23627;53.302;-6.362;2024-03-25T00:18:34;9.20;99.90
37788;DHT22;23627;53.302;-6.362;2024-03-25T00:21:00;9.20;99.90
37788;DHT22;23627;53.302;-6.362;2024-03-25T00:23:26;9.20;99.90
37788;DHT22;23627;53.302;-6.362;2024-03-25T00:25:51;9.20;99.90
37788;DHT22;23627;53.302;-6.362;2024-03-25T00:28:17;9.20;99.90
37788;DHT22;23627;53.302;-6.362;2024-03-25T00:30:44;9.30;99.90
37788;DHT22;23627;53.302;-6.362;2024-03-25T00:33:10;9.20;99.90
37788;DHT22;23627;53.302;-6.362;2024-03-25T00:35:36;9.30;99.90
37788;DHT22;23627;53.302;-6.362;2024-03-25T00:38:02;9.30;99.90
37788;DHT22;23627;53.302;-6.362;2024-03-25T00:40:29;9.30;99.90
37788;DHT22;23627;53.302;-6.362;2024-03-25T00:42:55;9.30;99.90
37788;DHT22;23627;53.302;-6.362;2024-03-25T00:45:23;9.30;99.90
37788;DHT22;23627;53.302;-6.362;2024-03-25T00:47:58;9.30;99.90
37788;DHT22;23627;53.302;-6.362;2024-03-25T00:50:25;9.20;99.90
37788;DHT22;23627;53.302;-6.362;2024-03-25T00:52:51;9.30;99.90
37788;DHT22;23627;53.302;-6.362;2024-03-25T00:55:17;9.30;99.90
37788;DHT22;23627;53.302;-6.362;2024-03-25T00:57:43;9.30;99.90
37788;DHT22;23627;53.302;-6.362;2024-03-25T01:00:09;9.30;99.90
37788;DHT22;23627;53.302;-6.362;2024-03-25T01:02:35;9.20;99.90
37788;DHT22;23627;53.302;-6.362;2024-03-25T01:05:01;9.20;99.90
37788;DHT22;23627;53.302;-6.362;2024-03-25T01:07:28;9.30;99.90
37788;DHT22;23627;53.302;-6.362;2024-03-25T01:09:53;9.30;99.90
37788;DHT22;23627;53.302;-6.362;2024-03-25T01:12:19;9.30;99.90
37788;DHT22;23627;53.302;-6.362;2024-03-25T01:14:48;9.30;99.90
37788;DHT22;23627;53.302;-6.362;2024-03-25T01:17:14;9.30;99.90
37788;DHT22;23627;53.302;-6.362;2024-03-25T01:19:40;9.30;99.90
37788;DHT22;23627;53.302;-6.362;2024-03-25T01:22:06;9.30;99.90
37788;DHT22;23627;53.302;-6.362;2024-03-25T01:24:32;9.30;99.90
37788;DHT22;23627;53.302;-6.362;2024-03-25T01:26:58;9.20;99.90
37788;DHT22;23627;53.302;-6.362;2024-03-25T01:29:24;9.30;99.90
37788;DHT22;23627;53.302;-6.362;2024-03-25T01:31:50;9.30;99.90
37788;DHT22;23627;53.302;-6.362;2024-03-25T01:34:16;9.30;99.90
37788;DHT22;23627;53.302;-6.362;2024-03-25T01:36:50;9.30;99.90
37788;DHT22;23627;53.302;-6.362;2024-03-25T01:39:18;9.30;99.90
37788;DHT22;23627;53.302;-6.362;2024-03-25T01:41:46;9.20;99.90
37788;DHT22;23627;53.302;-6.362;2024-03-25T01:44:12;9.30;99.90
37788;DHT22;23627;53.302;-6.362;2024-03-25T01:46:38;9.30;99.90
37788;DHT22;23627;53.302;-6.362;2024-03-25T01:49:05;9.30;99.90
37788;DHT22;23627;53.302;-6.362;2024-03-25T01:51:32;9.30;99.90
37788;DHT22;23627;53.302;-6.362;2024-03-25T01:54:01;9.20;99.90
37788;DHT22;23627;53.302;-6.362;2024-03-25T01:56:32;9.30;99.90
37788;DHT22;23627;53.302;-6.362;2024-03-25T01:58:59;9.20;99.90
37788;DHT22;23627;53.302;-6.362;2024-03-25T02:01:26;9.20;99.90
37788;DHT22;23627;53.302;-6.362;2024-03-25T02:03:55;9.20;99.90
37788;DHT22;23627;53.302;-6.362;2024-03-25T02:06:27;9.20;99.90
37788;DHT22;23627;53.302;-6.362;2024-03-25T02:08:55;9.30;99.90
37788;DHT22;23627;53.302;-6.362;2024-03-25T02:11:22;9.30;99.90
37788;DHT22;23627;53.302;-6.362;2024-03-25T02:13:50;9.20;99.90
37788;DHT22;23627;53.302;-6.362;2024-03-25T02:16:17;9.20;99.90
37788;DHT22;23627;53.302;-6.362;2024-03-25T02:18:44;9.20;99.90
37788;DHT22;23627;53.302;-6.362;2024-03-25T02:21:10;9.20;99.90
37788;DHT22;23627;53.302;-6.362;2024-03-25T02:23:39;9.20;99.90
37788;DHT22;23627;53.302;-6.362;2024-03-25T02:26:07;9.20;99.90
37788;DHT22;23627;53.302;-6.362;2024-03-25T02:28:33;9.20;99.90
37788;DHT22;23627;53.302;-6.362;2024-03-25T02:30:59;9.20;99.90
37788;DHT22;23627;53.302;-6.362;2024-03-25T02:33:24;9.20;99.90
37788;DHT22;23627;53.302;-6.362;2024-03-25T02:35:51;9.20;99.90
37788;DHT22;23627;53.302;-6.362;2024-03-25T02:38:17;9.20;99.90
37788;DHT22;23627;53.302;-6.362;2024-03-25T02:40:44;9.20;99.90
37788;DHT22;23627;53.302;-6.362;2024-03-25T02:43:11;9.20;99.90
37788;DHT22;23627;53.302;-6.362;2024-03-25T02:45:37;9.20;99.90
37788;DHT22;23627;53.302;-6.362;2024-03-25T02:48:03;9.20;99.90
37788;DHT22;23627;53.302;-6.362;2024-03-25T02:50:29;9.10;99.90
37788;DHT22;23627;53.302;-6.362;2024-03-25T02:52:55;9.20;99.90
37788;DHT22;23627;53.302;-6.362;2024-03-25T02:55:20;9.20;99.90
37788;DHT22;23627;53.302;-6.362;2024-03-25T02:57:46;9.10;99.90
37788;DHT22;23627;53.302;-6.362;2024-03-25T03:00:12;9.20;99.90
37788;DHT22;23627;53.302;-6.362;2024-03-25T03:02:39;9.20;99.90
37788;DHT22;23627;53.302;-6.362;2024-03-25T03:05:05;9.10;99.90
37788;DHT22;23627;53.302;-6.362;2024-03-25T03:07:31;9.10;99.90
37788;DHT22;23627;53.302;-6.362;2024-03-25T03:09:57;9.20;99.90
37788;DHT22;23627;53.302;-6.362;2024-03-25T03:12:23;9.10;99.90
37788;DHT22;23627;53.302;-6.362;2024-03-25T03:14:48;9.10;99.90
37788;DHT22;23627;53.302;-6.362;2024-03-25T03:17:14;9.10;99.90
37788;DHT22;23627;53.302;-6.362;2024-03-25T03:19:40;9.10;99.90
37788;DHT22;23627;53.302;-6.362;2024-03-25T03:22:06;9.10;99.90
37788;DHT22;23627;53.302;-6.362;2024-03-25T03:24:32;9.10;99.90
37788;DHT22;23627;53.302;-6.362;2024-03-25T03:26:58;9.10;99.90
37788;DHT22;23627;53.302;-6.362;2024-03-25T03:29:23;9.10;99.90
37788;DHT22;23627;53.302;-6.362;2024-03-25T03:31:49;9.10;99.90
37788;DHT22;23627;53.302;-6.362;2024-03-25T03:34:15;9.10;99.90
37788;DHT22;23627;53.302;-6.362;2024-03-25T03:36:41;9.10;99.90
37788;DHT22;23627;53.302;-6.362;2024-03-25T03:39:07;9.10;99.90
37788;DHT22;23627;53.302;-6.362;2024-03-25T03:41:35;9.10;99.90
37788;DHT22;23627;53.302;-6.362;2024-03-25T03:44:01;9.10;99.90
37788;DHT22;23627;53.302;-6.362;2024-03-25T03:46:30;9.10;99.90
37788;DHT22;23627;53.302;-6.362;2024-03-25T03:48:56;9.10;99.90
37788;DHT22;23627;53.302;-6.362;2024-03-25T03:51:22;9.10;99.90
37788;DHT22;23627;53.302;-6.362;2024-03-25T03:53:48;9.10;99.90
37788;DHT22;23627;53.302;-6.362;2024-03-25T03:56:13;9.10;99.90
37788;DHT22;23627;53.302;-6.362;2024-03-25T03:58:39;9.10;99.90
37788;DHT22;23627;53.302;-6.362;2024-03-25T04:01:14;9.10;99.90
37788;DHT22;23627;53.302;-6.362;2024-03-25T04:03:41;9.10;99.90
37788;DHT22;23627;53.302;-6.362;2024-03-25T04:06:11;9.10;99.90
37788;DHT22;23627;53.302;-6.362;2024-03-25T04:08:38;9.10;99.90
37788;DHT22;23627;53.302;-6.362;2024-03-25T04:11:04;9.10;99.90
37788;DHT22;23627;53.302;-6.362;2024-03-25T04:13:32;9.00;99.90
37788;DHT22;23627;53.302;-6.362;2024-03-25T04:16:01;9.10;99.90
37788;DHT22;23627;53.302;-6.362;2024-03-25T04:18:28;9.10;99.90
37788;DHT22;23627;53.302;-6.362;2024-03-25T04:20:54;9.00;99.90
37788;DHT22;23627;53.302;-6.362;2024-03-25T04:23:20;9.10;99.90
37788;DHT22;23627;53.302;-6.362;2024-03-25T04:25:45;9.00;99.90
37788;DHT22;23627;53.302;-6.362;2024-03-25T04:28:11;9.00;99.90
37788;DHT22;23627;53.302;-6.362;2024-03-25T04:30:37;9.00;99.90
37788;DHT22;23627;53.302;-6.362;2024-03-25T04:33:03;9.00;99.90
37788;DHT22;23627;53.302;-6.362;2024-03-25T04:35:29;9.00;99.90
37788;DHT22;23627;53.302;-6.362;2024-03-25T04:37:55;9.00;99.90
37788;DHT22;23627;53.302;-6.362;2024-03-25T04:40:25;9.00;99.90
37788;DHT22;23627;53.302;-6.362;2024-03-25T04:42:52;9.00;99.90
37788;DHT22;23627;53.302;-6.362;2024-03-25T04:45:21;9.00;99.90
37788;DHT22;23627;53.302;-6.362;2024-03-25T04:47:47;9.00;99.90
37788;DHT22;23627;53.302;-6.362;2024-03-25T04:50:13;9.00;99.90
37788;DHT22;23627;53.302;-6.362;2024-03-25T04:52:42;9.00;99.90
37788;DHT22;23627;53.302;-6.362;2024-03-25T04:55:08;9.00;99.90
37788;DHT22;23627;53.302;-6.362;2024-03-25T04:57:34;9.00;99.90
37788;DHT22;23627;53.302;-6.362;2024-03-25T05:00:00;9.00;99.90
37788;DHT22;23627;53.302;-6.362;2024-03-25T05:02:25;9.00;99.90
37788;DHT22;23627;53.302;-6.362;2024-03-25T05:04:51;9.00;99.90
37788;DHT22;23627;53.302;-6.362;2024-03-25T05:07:17;9.00;99.90
37788;DHT22;23627;53.302;-6.362;2024-03-25T05:09:43;8.90;99.90
37788;DHT22;23627;53.302;-6.362;2024-03-25T05:12:10;9.00;99.90
37788;DHT22;23627;53.302;-6.362;2024-03-25T05:14:36;8.90;99.90
37788;DHT22;23627;53.302;-6.362;2024-03-25T05:17:05;8.90;99.90
37788;DHT22;23627;53.302;-6.362;2024-03-25T05:19:33;8.90;99.90
37788;DHT22;23627;53.302;-6.362;2024-03-25T05:21:59;9.00;99.90
37788;DHT22;23627;53.302;-6.362;2024-03-25T05:24:25;8.90;99.90
37788;DHT22;23627;53.302;-6.362;2024-03-25T05:26:53;8.90;99.90
37788;DHT22;23627;53.302;-6.362;2024-03-25T05:29:19;8.90;99.90
37788;DHT22;23627;53.302;-6.362;2024-03-25T05:32:03;8.90;99.90
37788;DHT22;23627;53.302;-6.362;2024-03-25T05:34:29;8.90;99.90
37788;DHT22;23627;53.302;-6.362;2024-03-25T05:36:58;8.90;99.90
37788;DHT22;23627;53.302;-6.362;2024-03-25T05:39:26;8.90;99.90
37788;DHT22;23627;53.302;-6.362;2024-03-25T05:41:53;8.90;99.90
37788;DHT22;23627;53.302;-6.362;2024-03-25T05:44:18;8.90;99.90
37788;DHT22;23627;53.302;-6.362;2024-03-25T05:46:49;8.90;99.90
37788;DHT22;23627;53.302;-6.362;2024-03-25T05:49:15;8.90;99.90
37788;DHT22;23627;53.302;-6.362;2024-03-25T05:51:41;8.90;99.90
37788;DHT22;23627;53.302;-6.362;2024-03-25T05:54:07;8.90;99.90
37788;DHT22;23627;53.302;-6.362;2024-03-25T05:56:33;8.80;99.90
37788;DHT22;23627;53.302;-6.362;2024-03-25T05:59:00;8.80;99.90
37788;DHT22;23627;53.302;-6.362;2024-03-25T06:01:27;8.80;99.90
37788;DHT22;23627;53.302;-6.362;2024-03-25T06:03:53;8.90;99.90
37788;DHT22;23627;53.302;-6.362;2024-03-25T06:06:19;8.80;99.90
37788;DHT22;23627;53.302;-6.362;2024-03-25T06:08:45;8.80;99.90
37788;DHT22;23627;53.302;-6.362;2024-03-25T06:11:19;8.80;99.90
37788;DHT22;23627;53.302;-6.362;2024-03-25T06:13:48;8.80;99.90
37788;DHT22;23627;53.302;-6.362;2024-03-25T06:16:14;8.80;99.90
37788;DHT22;23627;53.302;-6.362;2024-03-25T06:18:41;8.80;99.90
37788;DHT22;23627;53.302;-6.362;2024-03-25T06:21:07;8.80;99.90
37788;DHT22;23627;53.302;-6.362;2024-03-25T06:23:36;8.80;99.90
37788;DHT22;23627;53.302;-6.362;2024-03-25T06:26:06;8.80;99.90
37788;DHT22;23627;53.302;-6.362;2024-03-25T06:28:34;8.80;99.90
37788;DHT22;23627;53.302;-6.362;2024-03-25T06:31:01;8.80;99.90
37788;DHT22;23627;53.302;-6.362;2024-03-25T06:33:48;8.80;99.90
37788;DHT22;23627;53.302;-6.362;2024-03-25T06:36:35;8.90;99.90
37788;DHT22;23627;53.302;-6.362;2024-03-25T06:39:04;8.90;99.90
37788;DHT22;23627;53.302;-6.362;2024-03-25T06:41:30;8.90;99.90
37788;DHT22;23627;53.302;-6.362;2024-03-25T06:43:56;8.90;99.90
37788;DHT22;23627;53.302;-6.362;2024-03-25T06:46:22;8.90;99.90
37788;DHT22;23627;53.302;-6.362;2024-03-25T06:48:48;8.90;99.90
37788;DHT22;23627;53.302;-6.362;2024-03-25T06:51:14;8.90;99.90
37788;DHT22;23627;53.302;-6.362;2024-03-25T06:53:40;8.90;99.90
37788;DHT22;23627;53.302;-6.362;2024-03-25T06:56:15;9.00;99.90
37788;DHT22;23627;53.302;-6.362;2024-03-25T06:58:42;9.00;99.90
37788;DHT22;23627;53.302;-6.362;2024-03-25T07:01:10;9.00;99.90
37788;DHT22;23627;53.302;-6.362;2024-03-25T07:03:38;9.00;99.90
37788;DHT22;23627;53.302;-6.362;2024-03-25T07:06:05;9.00;99.90
37788;DHT22;23627;53.302;-6.362;2024-03-25T07:11:55;9.10;99.90
37788;DHT22;23627;53.302;-6.362;2024-03-25T07:14:21;9.10;99.90
37788;DHT22;23627;53.302;-6.362;2024-03-25T07:16:47;9.10;99.90
37788;DHT22;23627;53.302;-6.362;2024-03-25T07:19:13;9.20;99.90
37788;DHT22;23627;53.302;-6.362;2024-03-25T07:21:39;9.20;99.90
37788;DHT22;23627;53.302;-6.362;2024-03-25T07:24:05;9.20;99.90
37788;DHT22;23627;53.302;-6.362;2024-03-25T07:26:33;9.20;99.90
37788;DHT22;23627;53.302;-6.362;2024-03-25T07:28:59;9.30;99.90
37788;DHT22;23627;53.302;-6.362;2024-03-25T07:31:28;9.40;99.90
37788;DHT22;23627;53.302;-6.362;2024-03-25T07:37:16;9.40;99.90
37788;DHT22;23627;53.302;-6.362;2024-03-25T07:39:42;9.50;99.90
37788;DHT22;23627;53.302;-6.362;2024-03-25T07:42:11;9.50;99.90
37788;DHT22;23627;53.302;-6.362;2024-03-25T07:44:39;9.60;99.90
37788;DHT22;23627;53.302;-6.362;2024-03-25T07:47:08;9.60;99.90
37788;DHT22;23627;53.302;-6.362;2024-03-25T07:49:34;9.70;99.90
37788;DHT22;23627;53.302;-6.362;2024-03-25T07:52:00;9.70;99.90
37788;DHT22;23627;53.302;-6.362;2024-03-25T07:54:31;9.70;99.90
37788;DHT22;23627;53.302;-6.362;2024-03-25T07:56:57;9.80;99.90
37788;DHT22;23627;53.302;-6.362;2024-03-25T07:59:23;9.80;99.90
37788;DHT22;23627;53.302;-6.362;2024-03-25T08:01:51;9.90;99.90
37788;DHT22;23627;53.302;-6.362;2024-03-25T08:04:17;10.00;99.90
37788;DHT22;23627;53.302;-6.362;2024-03-25T08:06:43;10.10;99.90
37788;DHT22;23627;53.302;-6.362;2024-03-25T08:09:09;10.10;99.90
37788;DHT22;23627;53.302;-6.362;2024-03-25T08:11:35;10.20;99.90
37788;DHT22;23627;53.302;-6.362;2024-03-25T08:14:01;10.20;99.90
37788;DHT22;23627;53.302;-6.362;2024-03-25T08:16:30;10.20;99.90
37788;DHT22;23627;53.302;-6.362;2024-03-25T08:18:56;10.30;99.90
37788;DHT22;23627;53.302;-6.362;2024-03-25T08:21:23;10.30;99.90
37788;DHT22;23627;53.302;-6.362;2024-03-25T08:23:51;10.30;99.90
37788;DHT22;23627;53.302;-6.362;2024-03-25T08:26:17;10.40;99.90
37788;DHT22;23627;53.302;-6.362;2024-03-25T08:28:43;10.40;99.90
37788;DHT22;23627;53.302;-6.362;2024-03-25T08:31:08;10.50;99.90
37788;DHT22;23627;53.302;-6.362;2024-03-25T08:33:34;10.50;99.90
37788;DHT22;23627;53.302;-6.362;2024-03-25T08:36:00;10.60;99.90
37788;DHT22;23627;53.302;-6.362;2024-03-25T08:38:28;10.60;99.90
37788;DHT22;23627;53.302;-6.362;2024-03-25T08:40:54;10.60;99.90
37788;DHT22;23627;53.302;-6.362;2024-03-25T08:43:20;10.60;99.90
37788;DHT22;23627;53.302;-6.362;2024-03-25T08:45:46;10.70;99.90
37788;DHT22;23627;53.302;-6.362;2024-03-25T08:48:12;10.60;99.90
37788;DHT22;23627;53.302;-6.362;2024-03-25T08:50:38;10.60;99.90
37788;DHT22;23627;53.302;-6.362;2024-03-25T08:53:04;10.60;99.90
37788;DHT22;23627;53.302;-6.362;2024-03-25T08:55:31;10.60;99.90
37788;DHT22;23627;53.302;-6.362;2024-03-25T08:58:00;10.60;99.90
37788;DHT22;23627;53.302;-6.362;2024-03-25T09:00:26;10.50;99.90
37788;DHT22;23627;53.302;-6.362;2024-03-25T09:02:54;10.50;99.90
37788;DHT22;23627;53.302;-6.362;2024-03-25T09:05:20;10.50;99.90
37788;DHT22;23627;53.302;-6.362;2024-03-25T09:07:51;10.50;99.90
37788;DHT22;23627;53.302;-6.362;2024-03-25T09:12:53;10.50;99.90
37788;DHT22;23627;53.302;-6.362;2024-03-25T09:15:19;10.50;99.90
37788;DHT22;23627;53.302;-6.362;2024-03-25T09:17:44;10.40;99.90
37788;DHT22;23627;53.302;-6.362;2024-03-25T09:20:11;10.40;99.90
37788;DHT22;23627;53.302;-6.362;2024-03-25T09:22:45;10.40;99.90
37788;DHT22;23627;53.302;-6.362;2024-03-25T09:25:11;10.50;99.90
37788;DHT22;23627;53.302;-6.362;2024-03-25T09:27:37;10.40;99.90
37788;DHT22;23627;53.302;-6.362;2024-03-25T09:30:03;10.40;99.90
37788;DHT22;23627;53.302;-6.362;2024-03-25T09:32:29;10.40;99.90
37788;DHT22;23627;53.302;-6.362;2024-03-25T09:35:01;10.40;99.90
37788;DHT22;23627;53.302;-6.362;2024-03-25T09:37:30;10.40;99.90
37788;DHT22;23627;53.302;-6.362;2024-03-25T09:39:57;10.40;99.90
37788;DHT22;23627;53.302;-6.362;2024-03-25T09:42:34;10.40;99.90
37788;DHT22;23627;53.302;-6.362;2024-03-25T09:45:01;10.40;99.90
37788;DHT22;23627;53.302;-6.362;2024-03-25T09:47:28;10.40;99.90
37788;DHT22;23627;53.302;-6.362;2024-03-25T09:49:54;10.40;99.90
37788;DHT22;23627;53.302;-6.362;2024-03-25T09:52:20;10.40;99.90
37788;DHT22;23627;53.302;-6.362;2024-03-25T09:54:50;10.40;99.90
37788;DHT22;23627;53.302;-6.362;2024-03-25T09:59:58;10.50;99.90
37788;DHT22;23627;53.302;-6.362;2024-03-25T10:02:25;10.50;99.90
37788;DHT22;23627;53.302;-6.362;2024-03-25T10:04:54;10.50;99.90
37788;DHT22;23627;53.302;-6.362;2024-03-25T10:07:25;10.50;99.90
37788;DHT22;23627;53.302;-6.362;2024-03-25T10:09:51;10.50;99.90
37788;DHT22;23627;53.302;-6.362;2024-03-25T10:12:17;10.50;99.90
37788;DHT22;23627;53.302;-6.362;2024-03-25T10:14:43;10.50;99.90
37788;DHT22;23627;53.302;-6.362;2024-03-25T10:17:14;10.60;99.90
37788;DHT22;23627;53.302;-6.362;2024-03-25T10:19:45;10.70;99.90
37788;DHT22;23627;53.302;-6.362;2024-03-25T10:22:13;10.80;99.90
37788;DHT22;23627;53.302;-6.362;2024-03-25T10:32:23;10.90;99.90
37788;DHT22;23627;53.302;-6.362;2024-03-25T10:34:50;10.90;99.90
37788;DHT22;23627;53.302;-6.362;2024-03-25T10:37:20;10.90;99.90
37788;DHT22;23627;53.302;-6.362;2024-03-25T10:39:49;10.90;99.90
37788;DHT22;23627;53.302;-6.362;2024-03-25T10:42:19;10.80;99.90
37788;DHT22;23627;53.302;-6.362;2024-03-25T10:44:45;10.80;99.90
37788;DHT22;23627;53.302;-6.362;2024-03-25T10:47:27;10.70;99.90
37788;DHT22;23627;53.302;-6.362;2024-03-25T10:49:57;10.70;99.90
37788;DHT22;23627;53.302;-6.362;2024-03-25T10:52:27;10.80;99.90
37788;DHT22;23627;53.302;-6.362;2024-03-25T10:54:55;10.80;99.90
37788;DHT22;23627;53.302;-6.362;2024-03-25T10:57:22;10.90;99.90
37788;DHT22;23627;53.302;-6.362;2024-03-25T10:59:49;11.10;99.90
37788;DHT22;23627;53.302;-6.362;2024-03-25T11:02:15;11.20;99.90
37788;DHT22;23627;53.302;-6.362;2024-03-25T11:04:44;11.30;99.90
37788;DHT22;23627;53.302;-6.362;2024-03-25T11:07:13;11.50;99.90
37788;DHT22;23627;53.302;-6.362;2024-03-25T11:09:40;11.60;99.90
37788;DHT22;23627;53.302;-6.362;2024-03-25T11:12:10;11.80;99.90
37788;DHT22;23627;53.302;-6.362;2024-03-25T11:14:36;11.90;99.90
37788;DHT22;23627;53.302;-6.362;2024-03-25T11:17:02;12.10;99.90
37788;DHT22;23627;53.302;-6.362;2024-03-25T11:19:31;12.20;99.90
37788;DHT22;23627;53.302;-6.362;2024-03-25T11:22:08;12.40;99.90
37788;DHT22;23627;53.302;-6.362;2024-03-25T11:24:35;12.50;99.90
37788;DHT22;23627;53.302;-6.362;2024-03-25T11:27:07;12.70;99.90
37788;DHT22;23627;53.302;-6.362;2024-03-25T11:29:34;12.70;99.90
37788;DHT22;23627;53.302;-6.362;2024-03-25T11:32:04;12.70;99.90
37788;DHT22;23627;53.302;-6.362;2024-03-25T11:34:30;12.70;99.90
37788;DHT22;23627;53.302;-6.362;2024-03-25T11:36:57;12.70;99.90
37788;DHT22;23627;53.302;-6.362;2024-03-25T11:39:26;12.60;99.90
37788;DHT22;23627;53.302;-6.362;2024-03-25T11:49:41;12.50;99.90
37788;DHT22;23627;53.302;-6.362;2024-03-25T11:54:42;12.50;99.90
37788;DHT22;23627;53.302;-6.362;2024-03-25T11:57:08;12.60;99.90
37788;DHT22;23627;53.302;-6.362;2024-03-25T11:59:37;12.80;99.90
37788;DHT22;23627;53.302;-6.362;2024-03-25T12:02:06;13.00;99.90
37788;DHT22;23627;53.302;-6.362;2024-03-25T12:04:33;13.10;99.90
37788;DHT22;23627;53.302;-6.362;2024-03-25T12:06:59;13.20;99.90
37788;DHT22;23627;53.302;-6.362;2024-03-25T12:09:24;13.20;99.90
37788;DHT22;23627;53.302;-6.362;2024-03-25T12:12:09;13.20;99.90
37788;DHT22;23627;53.302;-6.362;2024-03-25T12:14:35;13.30;99.90
37788;DHT22;23627;53.302;-6.362;2024-03-25T12:17:01;13.30;99.90
37788;DHT22;23627;53.302;-6.362;2024-03-25T12:19:28;13.40;99.90
37788;DHT22;23627;53.302;-6.362;2024-03-25T12:22:01;13.40;99.90
37788;DHT22;23627;53.302;-6.362;2024-03-25T12:24:32;13.50;99.90
37788;DHT22;23627;53.302;-6.362;2024-03-25T12:26:58;13.50;99.90
37788;DHT22;23627;53.302;-6.362;2024-03-25T12:29:24;13.50;99.90
37788;DHT22;23627;53.302;-6.362;2024-03-25T12:31:56;13.40;99.90
37788;DHT22;23627;53.302;-6.362;2024-03-25T12:34:24;13.30;99.90
37788;DHT22;23627;53.302;-6.362;2024-03-25T12:36:50;13.10;99.90
37788;DHT22;23627;53.302;-6.362;2024-03-25T12:39:19;13.00;99.90
37788;DHT22;23627;53.302;-6.362;2024-03-25T12:41:51;12.90;99.90
37788;DHT22;23627;53.302;-6.362;2024-03-25T12:44:17;12.80;99.90
37788;DHT22;23627;53.302;-6.362;2024-03-25T12:51:56;12.80;99.90
37788;DHT22;23627;53.302;-6.362;2024-03-25T12:54:22;12.70;99.90
37788;DHT22;23627;53.302;-6.362;2024-03-25T12:57:01;12.70;99.90
37788;DHT22;23627;53.302;-6.362;2024-03-25T12:59:32;12.70;99.90
37788;DHT22;23627;53.302;-6.362;2024-03-25T13:02:01;12.80;99.90
37788;DHT22;23627;53.302;-6.362;2024-03-25T13:04:27;12.80;99.90
37788;DHT22;23627;53.302;-6.362;2024-03-25T13:12:41;12.70;99.90
37788;DHT22;23627;53.302;-6.362;2024-03-25T13:15:08;12.60;99.90
37788;DHT22;23627;53.302;-6.362;2024-03-25T13:17:34;12.60;99.90
37788;DHT22;23627;53.302;-6.362;2024-03-25T13:19:59;12.60;99.90
37788;DHT22;23627;53.302;-6.362;2024-03-25T13:22:25;12.60;99.90
37788;DHT22;23627;53.302;-6.362;2024-03-25T13:24:53;12.60;99.90
37788;DHT22;23627;53.302;-6.362;2024-03-25T13:27:19;12.60;99.90
37788;DHT22;23627;53.302;-6.362;2024-03-25T13:29:48;12.60;99.90
37788;DHT22;23627;53.302;-6.362;2024-03-25T13:32:14;12.60;99.90
37788;DHT22;23627;53.302;-6.362;2024-03-25T13:34:43;12.50;99.90
37788;DHT22;23627;53.302;-6.362;2024-03-25T13:37:11;12.40;99.90
37788;DHT22;23627;53.302;-6.362;2024-03-25T13:39:37;12.40;99.90
37788;DHT22;23627;53.302;-6.362;2024-03-25T13:42:04;12.40;99.90
37788;DHT22;23627;53.302;-6.362;2024-03-25T13:44:30;12.30;99.90
37788;DHT22;23627;53.302;-6.362;2024-03-25T13:46:56;12.20;99.90
37788;DHT22;23627;53.302;-6.362;2024-03-25T13:49:22;12.20;99.90
37788;DHT22;23627;53.302;-6.362;2024-03-25T13:51:59;12.10;99.90
37788;DHT22;23627;53.302;-6.362;2024-03-25T13:54:28;12.10;99.90
37788;DHT22;23627;53.302;-6.362;2024-03-25T13:56:55;12.00;99.90
37788;DHT22;23627;53.302;-6.362;2024-03-25T13:59:21;12.00;99.90
37788;DHT22;23627;53.302;-6.362;2024-03-25T14:01:46;12.10;99.90
37788;DHT22;23627;53.302;-6.362;2024-03-25T14:04:12;12.10;99.90
37788;DHT22;23627;53.302;-6.362;2024-03-25T14:06:39;12.10;99.90
37788;DHT22;23627;53.302;-6.362;2024-03-25T14:09:06;12.00;99.90
37788;DHT22;23627;53.302;-6.362;2024-03-25T14:11:34;12.00;99.90
37788;DHT22;23627;53.302;-6.362;2024-03-25T14:14:02;11.90;99.90
37788;DHT22;23627;53.302;-6.362;2024-03-25T14:16:28;11.80;99.90
37788;DHT22;23627;53.302;-6.362;2024-03-25T14:18:54;11.80;99.90
37788;DHT22;23627;53.302;-6.362;2024-03-25T14:21:20;11.70;99.90
37788;DHT22;23627;53.302;-6.362;2024-03-25T14:23:46;11.70;99.90
37788;DHT22;23627;53.302;-6.362;2024-03-25T14:26:14;11.60;99.90
37788;DHT22;23627;53.302;-6.362;2024-03-25T14:28:41;11.60;99.90
37788;DHT22;23627;53.302;-6.362;2024-03-25T14:31:07;11.60;99.90
37788;DHT22;23627;53.302;-6.362;2024-03-25T14:33:32;11.60;99.90
37788;DHT22;23627;53.302;-6.362;2024-03-25T14:35:58;11.60;99.90
37788;DHT22;23627;53.302;-6.362;2024-03-25T14:38:24;11.60;99.90
37788;DHT22;23627;53.302;-6.362;2024-03-25T14:40:50;11.60;99.90
37788;DHT22;23627;53.302;-6.362;2024-03-25T14:43:15;11.70;99.90
37788;DHT22;23627;53.302;-6.362;2024-03-25T14:45:44;11.70;99.90
37788;DHT22;23627;53.302;-6.362;2024-03-25T14:51:32;11.80;99.90
37788;DHT22;23627;53.302;-6.362;2024-03-25T14:53:58;11.70;99.90
37788;DHT22;23627;53.302;-6.362;2024-03-25T14:56:24;11.80;99.90
37788;DHT22;23627;53.302;-6.362;2024-03-25T14:58:50;11.70;99.90
37788;DHT22;23627;53.302;-6.362;2024-03-25T15:01:16;11.70;99.90
37788;DHT22;23627;53.302;-6.362;2024-03-25T15:03:41;11.70;99.90
37788;DHT22;23627;53.302;-6.362;2024-03-25T15:06:07;11.60;99.90
37788;DHT22;23627;53.302;-6.362;2024-03-25T15:08:33;11.60;99.90
37788;DHT22;23627;53.302;-6.362;2024-03-25T15:10:59;11.50;99.90
37788;DHT22;23627;53.302;-6.362;2024-03-25T15:13:24;11.50;99.90
37788;DHT22;23627;53.302;-6.362;2024-03-25T15:15:50;11.50;99.90
37788;DHT22;23627;53.302;-6.362;2024-03-25T15:18:16;11.40;99.90
37788;DHT22;23627;53.302;-6.362;2024-03-25T15:20:42;11.40;99.90
37788;DHT22;23627;53.302;-6.362;2024-03-25T15:23:07;11.40;99.90
37788;DHT22;23627;53.302;-6.362;2024-03-25T15:25:33;11.30;99.90
37788;DHT22;23627;53.302;-6.362;2024-03-25T15:27:59;11.30;99.90
37788;DHT22;23627;53.302;-6.362;2024-03-25T15:30:25;11.30;99.90
37788;DHT22;23627;53.302;-6.362;2024-03-25T15:32:51;11.30;99.90
37788;DHT22;23627;53.302;-6.362;2024-03-25T15:35:16;11.30;99.90
37788;DHT22;23627;53.302;-6.362;2024-03-25T15:37:42;11.30;99.90
37788;DHT22;23627;53.302;-6.362;2024-03-25T15:40:08;11.30;99.90
37788;DHT22;23627;53.302;-6.362;2024-03-25T15:42:41;11.30;99.90
37788;DHT22;23627;53.302;-6.362;2024-03-25T15:45:08;11.40;99.90
37788;DHT22;23627;53.302;-6.362;2024-03-25T15:47:33;11.40;99.90
37788;DHT22;23627;53.302;-6.362;2024-03-25T15:49:59;11.50;99.90
37788;DHT22;23627;53.302;-6.362;2024-03-25T15:52:25;11.50;99.90
37788;DHT22;23627;53.302;-6.362;2024-03-25T15:54:51;11.50;99.90
37788;DHT22;23627;53.302;-6.362;2024-03-25T15:57:17;11.60;99.90
37788;DHT22;23627;53.302;-6.362;2024-03-25T15:59:43;11.60;99.90
37788;DHT22;23627;53.302;-6.362;2024-03-25T16:02:08;11.60;99.90
37788;DHT22;23627;53.302;-6.362;2024-03-25T16:04:34;11.60;99.90
37788;DHT22;23627;53.302;-6.362;2024-03-25T16:07:00;11.60;99.90